Red Lake, Arizona
Current Conditions -  °F | °C
As of 4:56 PM on Friday 31 Oct 2014 (Local Time) from KINW Reporting Station
Clear Clear  
Wind Chill: 75°   Ceiling: Unl
Heat Index: 75°   Visibility: 10mi
Dew Point: 38°   Wind: 17mph
Humidity: 26%   Direction: 180°S
Pressure: 30.02"   Gusts: 23mph
Location:  35.9324°N, 110.869°W
Report Text: KINW 312356Z AUTO 18015G20KT 10SM CLR 24/03 A3002 RMK AO2 SLP114 T02390033 10272 20233 56005
Loading
Personal Weather Stations






























Interactive Weather Map
Tropical Storm Tracking
New forecast layout! Learn more

10-Day Weather Forecast

Advertisements
Track Severe Weather on mobile